sensor_id;sensor_type;location;lat;lon;timestamp;pressure;altitude;pressure_sealevel;temperature;humidity
20156;BME280;10238;49.556;10.956;2023-05-02T00:00:47;98315.22;;;7.40;100.00
20156;BME280;10238;49.556;10.956;2023-05-02T00:03:36;98313.81;;;7.36;100.00
20156;BME280;10238;49.556;10.956;2023-05-02T00:06:24;98319.25;;;7.35;100.00
20156;BME280;10238;49.556;10.956;2023-05-02T00:09:13;98308.22;;;7.30;100.00
20156;BME280;10238;49.556;10.956;2023-05-02T00:12:01;98312.97;;;7.26;100.00
20156;BME280;10238;49.556;10.956;2023-05-02T00:14:49;98311.44;;;7.24;100.00
20156;BME280;10238;49.556;10.956;2023-05-02T00:17:40;98312.66;;;7.20;100.00
20156;BME280;10238;49.556;10.956;2023-05-02T00:20:29;98306.81;;;7.16;100.00
20156;BME280;10238;49.556;10.956;2023-05-02T00:23:16;98311.53;;;7.13;100.00
20156;BME280;10238;49.556;10.956;2023-05-02T00:26:09;98303.88;;;7.10;100.00
20156;BME280;10238;49.556;10.956;2023-05-02T00:28:57;98302.34;;;7.07;100.00
20156;BME280;10238;49.556;10.956;2023-05-02T00:31:46;98298.97;;;7.05;100.00
20156;BME280;10238;49.556;10.956;2023-05-02T00:34:34;98309.00;;;7.02;100.00
20156;BME280;10238;49.556;10.956;2023-05-02T00:37:26;98304.78;;;6.99;100.00
20156;BME280;10238;49.556;10.956;2023-05-02T00:40:14;98308.56;;;6.97;100.00
20156;BME280;10238;49.556;10.956;2023-05-02T00:43:04;98301.72;;;6.94;100.00
20156;BME280;10238;49.556;10.956;2023-05-02T00:45:52;98302.00;;;6.91;100.00
20156;BME280;10238;49.556;10.956;2023-05-02T00:48:39;98300.34;;;6.90;100.00
20156;BME280;10238;49.556;10.956;2023-05-02T00:51:27;98297.81;;;6.89;100.00
20156;BME280;10238;49.556;10.956;2023-05-02T00:54:15;98310.31;;;6.87;100.00
20156;BME280;10238;49.556;10.956;2023-05-02T00:57:03;98317.53;;;6.85;100.00
20156;BME280;10238;49.556;10.956;2023-05-02T00:59:53;98310.84;;;6.81;100.00
20156;BME280;10238;49.556;10.956;2023-05-02T01:02:49;98310.84;;;6.81;100.00
20156;BME280;10238;49.556;10.956;2023-05-02T01:05:46;98310.41;;;6.76;100.00
20156;BME280;10238;49.556;10.956;2023-05-02T01:08:39;98302.47;;;6.76;100.00
20156;BME280;10238;49.556;10.956;2023-05-02T01:11:34;98309.00;;;6.72;100.00
20156;BME280;10238;49.556;10.956;2023-05-02T01:14:26;98298.44;;;6.72;100.00
20156;BME280;10238;49.556;10.956;2023-05-02T01:17:19;98301.47;;;6.67;100.00
20156;BME280;10238;49.556;10.956;2023-05-02T01:20:13;98301.59;;;6.65;100.00
20156;BME280;10238;49.556;10.956;2023-05-02T01:23:05;98305.47;;;6.61;100.00
20156;BME280;10238;49.556;10.956;2023-05-02T01:26:05;98310.03;;;6.59;100.00
20156;BME280;10238;49.556;10.956;2023-05-02T01:28:59;98310.28;;;6.56;100.00
20156;BME280;10238;49.556;10.956;2023-05-02T01:31:49;98306.00;;;6.55;100.00
20156;BME280;10238;49.556;10.956;2023-05-02T01:34:39;98305.31;;;6.53;100.00
20156;BME280;10238;49.556;10.956;2023-05-02T01:37:30;98304.59;;;6.51;100.00
20156;BME280;10238;49.556;10.956;2023-05-02T01:40:20;98302.34;;;6.47;100.00
20156;BME280;10238;49.556;10.956;2023-05-02T01:43:09;98308.72;;;6.44;100.00
20156;BME280;10238;49.556;10.956;2023-05-02T01:46:00;98317.59;;;6.43;100.00
20156;BME280;10238;49.556;10.956;2023-05-02T01:48:52;98324.38;;;6.36;100.00
20156;BME280;10238;49.556;10.956;2023-05-02T01:51:44;98327.34;;;6.43;100.00
20156;BME280;10238;49.556;10.956;2023-05-02T01:54:34;98335.69;;;6.27;100.00
20156;BME280;10238;49.556;10.956;2023-05-02T01:57:23;98335.00;;;6.25;100.00
20156;BME280;10238;49.556;10.956;2023-05-02T02:00:12;98330.53;;;6.26;100.00
20156;BME280;10238;49.556;10.956;2023-05-02T02:03:05;98334.16;;;6.25;100.00
20156;BME280;10238;49.556;10.956;2023-05-02T02:05:57;98331.63;;;6.23;100.00
20156;BME280;10238;49.556;10.956;2023-05-02T02:08:46;98338.16;;;6.19;100.00
20156;BME280;10238;49.556;10.956;2023-05-02T02:11:36;98334.78;;;6.17;100.00
20156;BME280;10238;49.556;10.956;2023-05-02T02:14:34;98342.56;;;6.19;100.00
20156;BME280;10238;49.556;10.956;2023-05-02T02:17:26;98344.41;;;6.18;100.00
20156;BME280;10238;49.556;10.956;2023-05-02T02:20:18;98351.59;;;6.16;100.00
20156;BME280;10238;49.556;10.956;2023-05-02T02:23:08;98353.50;;;6.14;100.00
20156;BME280;10238;49.556;10.956;2023-05-02T02:25:57;98348.25;;;6.14;100.00
20156;BME280;10238;49.556;10.956;2023-05-02T02:28:45;98352.81;;;6.12;100.00
20156;BME280;10238;49.556;10.956;2023-05-02T02:31:33;98364.31;;;6.11;100.00
20156;BME280;10238;49.556;10.956;2023-05-02T02:34:22;98365.41;;;6.09;100.00
20156;BME280;10238;49.556;10.956;2023-05-02T02:37:15;98357.63;;;6.07;100.00
20156;BME280;10238;49.556;10.956;2023-05-02T02:40:08;98368.31;;;6.06;100.00
20156;BME280;10238;49.556;10.956;2023-05-02T02:43:05;98372.03;;;6.03;100.00
20156;BME280;10238;49.556;10.956;2023-05-02T02:46:01;98365.34;;;5.99;100.00
20156;BME280;10238;49.556;10.956;2023-05-02T02:49:12;98377.56;;;6.00;100.00
20156;BME280;10238;49.556;10.956;2023-05-02T02:52:07;98369.91;;;5.97;100.00
20156;BME280;10238;49.556;10.956;2023-05-02T02:55:06;98378.06;;;5.94;100.00
20156;BME280;10238;49.556;10.956;2023-05-02T02:57:59;98382.63;;;5.92;100.00
20156;BME280;10238;49.556;10.956;2023-05-02T03:00:49;98381.94;;;5.90;100.00
20156;BME280;10238;49.556;10.956;2023-05-02T03:03:39;98383.84;;;5.88;100.00
20156;BME280;10238;49.556;10.956;2023-05-02T03:06:29;98391.03;;;5.86;100.00
20156;BME280;10238;49.556;10.956;2023-05-02T03:09:17;98391.88;;;5.87;100.00
20156;BME280;10238;49.556;10.956;2023-05-02T03:12:07;98403.28;;;5.87;100.00
20156;BME280;10238;49.556;10.956;2023-05-02T03:14:55;98409.78;;;5.83;100.00
20156;BME280;10238;49.556;10.956;2023-05-02T03:17:49;98407.34;;;5.80;100.00
20156;BME280;10238;49.556;10.956;2023-05-02T03:20:37;98410.94;;;5.79;100.00
20156;BME280;10238;49.556;10.956;2023-05-02T03:23:25;98408.53;;;5.76;100.00
20156;BME280;10238;49.556;10.956;2023-05-02T03:26:13;98408.78;;;5.73;100.00
20156;BME280;10238;49.556;10.956;2023-05-02T03:29:03;98412.50;;;5.71;100.00
20156;BME280;10238;49.556;10.956;2023-05-02T03:31:50;98417.19;;;5.67;100.00
20156;BME280;10238;49.556;10.956;2023-05-02T03:34:38;98408.56;;;5.65;100.00
20156;BME280;10238;49.556;10.956;2023-05-02T03:37:27;98409.66;;;5.63;100.00
20156;BME280;10238;49.556;10.956;2023-05-02T03:40:15;98422.25;;;5.59;100.00
20156;BME280;10238;49.556;10.956;2023-05-02T03:43:07;98410.97;;;5.57;100.00
20156;BME280;10238;49.556;10.956;2023-05-02T03:45:56;98425.13;;;5.56;100.00
20156;BME280;10238;49.556;10.956;2023-05-02T03:48:44;98425.13;;;5.56;100.00
20156;BME280;10238;49.556;10.956;2023-05-02T03:51:33;98438.31;;;5.56;100.00
20156;BME280;10238;49.556;10.956;2023-05-02T03:54:21;98432.06;;;5.57;100.00
20156;BME280;10238;49.556;10.956;2023-05-02T03:57:09;98432.91;;;5.58;100.00
20156;BME280;10238;49.556;10.956;2023-05-02T03:59:57;98438.06;;;5.59;100.00
20156;BME280;10238;49.556;10.956;2023-05-02T04:02:47;98442.00;;;5.76;100.00
20156;BME280;10238;49.556;10.956;2023-05-02T04:05:35;98460.59;;;5.85;100.00
20156;BME280;10238;49.556;10.956;2023-05-02T04:08:23;98465.75;;;5.76;100.00
20156;BME280;10238;49.556;10.956;2023-05-02T04:11:11;98475.19;;;5.67;100.00
20156;BME280;10238;49.556;10.956;2023-05-02T04:13:59;98473.06;;;5.61;100.00
20156;BME280;10238;49.556;10.956;2023-05-02T04:16:47;98471.00;;;5.65;100.00
20156;BME280;10238;49.556;10.956;2023-05-02T04:19:37;98474.47;;;5.76;100.00
20156;BME280;10238;49.556;10.956;2023-05-02T04:22:25;98473.66;;;5.87;100.00
20156;BME280;10238;49.556;10.956;2023-05-02T04:25:13;98487.91;;;5.95;100.00
20156;BME280;10238;49.556;10.956;2023-05-02T04:28:01;98492.13;;;5.87;100.00
20156;BME280;10238;49.556;10.956;2023-05-02T04:30:51;98488.88;;;5.94;100.00
20156;BME280;10238;49.556;10.956;2023-05-02T04:33:39;98496.88;;;6.15;100.00
20156;BME280;10238;49.556;10.956;2023-05-02T04:36:28;98504.16;;;6.22;100.00
20156;BME280;10238;49.556;10.956;2023-05-02T04:39:16;98515.19;;;6.27;100.00
20156;BME280;10238;49.556;10.956;2023-05-02T04:42:04;98522.59;;;6.33;100.00
20156;BME280;10238;49.556;10.956;2023-05-02T04:44:52;98518.78;;;6.26;100.00
20156;BME280;10238;49.556;10.956;2023-05-02T04:47:40;98525.13;;;6.35;100.00
20156;BME280;10238;49.556;10.956;2023-05-02T04:50:28;98527.75;;;6.46;100.00
20156;BME280;10238;49.556;10.956;2023-05-02T04:53:20;98539.47;;;6.53;100.00
20156;BME280;10238;49.556;10.956;2023-05-02T04:56:08;98539.22;;;6.56;100.00
20156;BME280;10238;49.556;10.956;2023-05-02T04:58:56;98536.22;;;6.60;100.00
20156;BME280;10238;49.556;10.956;2023-05-02T05:01:44;98542.91;;;6.64;100.00
20156;BME280;10238;49.556;10.956;2023-05-02T05:04:32;98554.19;;;6.67;100.00
20156;BME280;10238;49.556;10.956;2023-05-02T05:07:20;98560.19;;;6.68;100.00
20156;BME280;10238;49.556;10.956;2023-05-02T05:10:10;98562.19;;;6.76;100.00
20156;BME280;10238;49.556;10.956;2023-05-02T05:12:58;98565.31;;;6.81;100.00
20156;BME280;10238;49.556;10.956;2023-05-02T05:15:47;98571.78;;;6.77;100.00
20156;BME280;10238;49.556;10.956;2023-05-02T05:18:34;98578.16;;;6.86;100.00
20156;BME280;10238;49.556;10.956;2023-05-02T05:21:26;98575.44;;;6.97;100.00
20156;BME280;10238;49.556;10.956;2023-05-02T05:24:14;98568.25;;;6.99;100.00
20156;BME280;10238;49.556;10.956;2023-05-02T05:27:04;98574.09;;;7.02;100.00
20156;BME280;10238;49.556;10.956;2023-05-02T05:29:52;98576.69;;;7.13;100.00
20156;BME280;10238;49.556;10.956;2023-05-02T05:32:40;98587.59;;;7.20;100.00
20156;BME280;10238;49.556;10.956;2023-05-02T05:35:28;98592.94;;;7.29;96.24
20156;BME280;10238;49.556;10.956;2023-05-02T05:38:17;98595.22;;;7.34;92.63
20156;BME280;10238;49.556;10.956;2023-05-02T05:41:06;98597.00;;;7.33;89.61
20156;BME280;10238;49.556;10.956;2023-05-02T05:43:56;98600.56;;;7.43;86.16
20156;BME280;10238;49.556;10.956;2023-05-02T05:46:44;98604.47;;;7.49;81.97
20156;BME280;10238;49.556;10.956;2023-05-02T05:49:32;98606.59;;;7.55;78.64
20156;BME280;10238;49.556;10.956;2023-05-02T05:52:24;98604.69;;;7.57;76.28
20156;BME280;10238;49.556;10.956;2023-05-02T05:55:12;98612.91;;;7.63;72.60
20156;BME280;10238;49.556;10.956;2023-05-02T05:58:00;98622.44;;;7.66;71.04
20156;BME280;10238;49.556;10.956;2023-05-02T06:00:50;98628.16;;;7.71;69.89
20156;BME280;10238;49.556;10.956;2023-05-02T06:03:37;98625.97;;;7.76;70.08
20156;BME280;10238;49.556;10.956;2023-05-02T06:06:26;98629.75;;;7.83;69.59
20156;BME280;10238;49.556;10.956;2023-05-02T06:09:13;98629.25;;;7.89;70.17
20156;BME280;10238;49.556;10.956;2023-05-02T06:12:02;98636.66;;;7.95;70.98
20156;BME280;10238;49.556;10.956;2023-05-02T06:14:50;98639.88;;;7.98;73.81
20156;BME280;10238;49.556;10.956;2023-05-02T06:17:39;98654.16;;;8.07;75.59
20156;BME280;10238;49.556;10.956;2023-05-02T06:20:27;98649.13;;;8.13;82.62
20156;BME280;10238;49.556;10.956;2023-05-02T06:23:15;98657.66;;;8.17;100.00
20156;BME280;10238;49.556;10.956;2023-05-02T06:26:04;98662.97;;;8.17;100.00
20156;BME280;10238;49.556;10.956;2023-05-02T06:28:53;98663.75;;;8.28;100.00
20156;BME280;10238;49.556;10.956;2023-05-02T06:31:41;98678.00;;;8.37;100.00
20156;BME280;10238;49.556;10.956;2023-05-02T06:34:32;98678.34;;;8.53;100.00
20156;BME280;10238;49.556;10.956;2023-05-02T06:37:20;98678.06;;;8.56;100.00
20156;BME280;10238;49.556;10.956;2023-05-02T06:40:10;98683.94;;;8.59;100.00
20156;BME280;10238;49.556;10.956;2023-05-02T06:42:59;98687.88;;;8.65;100.00
20156;BME280;10238;49.556;10.956;2023-05-02T06:45:47;98691.91;;;8.69;100.00
20156;BME280;10238;49.556;10.956;2023-05-02T06:48:35;98694.56;;;8.69;100.00
20156;BME280;10238;49.556;10.956;2023-05-02T06:51:24;98696.41;;;8.78;100.00
20156;BME280;10238;49.556;10.956;2023-05-02T06:54:16;98693.22;;;8.84;100.00
20156;BME280;10238;49.556;10.956;2023-05-02T06:57:04;98704.38;;;8.88;100.00
20156;BME280;10238;49.556;10.956;2023-05-02T06:59:52;98708.59;;;9.00;100.00
20156;BME280;10238;49.556;10.956;2023-05-02T07:02:39;98707.94;;;9.07;100.00
20156;BME280;10238;49.556;10.956;2023-05-02T07:05:28;98718.72;;;9.15;100.00
20156;BME280;10238;49.556;10.956;2023-05-02T07:08:18;98723.44;;;9.21;100.00
20156;BME280;10238;49.556;10.956;2023-05-02T07:11:08;98704.69;;;9.04;100.00
20156;BME280;10238;49.556;10.956;2023-05-02T07:13:55;98696.91;;;9.21;100.00
20156;BME280;10238;49.556;10.956;2023-05-02T07:16:43;98694.44;;;9.20;100.00
20156;BME280;10238;49.556;10.956;2023-05-02T07:19:31;98689.66;;;9.23;100.00
20156;BME280;10238;49.556;10.956;2023-05-02T07:22:20;98683.78;;;9.39;100.00
20156;BME280;10238;49.556;10.956;2023-05-02T07:25:09;98686.75;;;9.36;100.00
20156;BME280;10238;49.556;10.956;2023-05-02T07:27:58;98682.44;;;9.44;100.00
20156;BME280;10238;49.556;10.956;2023-05-02T07:30:46;98674.31;;;9.55;100.00
20156;BME280;10238;49.556;10.956;2023-05-02T07:33:34;98680.75;;;9.53;100.00
20156;BME280;10238;49.556;10.956;2023-05-02T07:36:22;98672.91;;;9.61;100.00
20156;BME280;10238;49.556;10.956;2023-05-02T07:39:09;98682.97;;;9.76;100.00
20156;BME280;10238;49.556;10.956;2023-05-02T07:41:59;98688.00;;;9.79;100.00
20156;BME280;10238;49.556;10.956;2023-05-02T07:44:48;98692.75;;;9.85;100.00
20156;BME280;10238;49.556;10.956;2023-05-02T07:47:36;98699.16;;;9.92;100.00
20156;BME280;10238;49.556;10.956;2023-05-02T07:50:24;98720.41;;;10.11;100.00
20156;BME280;10238;49.556;10.956;2023-05-02T07:53:12;98722.50;;;10.17;100.00
20156;BME280;10238;49.556;10.956;2023-05-02T07:56:01;98732.69;;;10.12;100.00
20156;BME280;10238;49.556;10.956;2023-05-02T07:58:51;98732.66;;;10.31;100.00
20156;BME280;10238;49.556;10.956;2023-05-02T08:01:39;98741.44;;;10.41;100.00
20156;BME280;10238;49.556;10.956;2023-05-02T08:04:27;98742.94;;;10.53;100.00
20156;BME280;10238;49.556;10.956;2023-05-02T08:07:15;98751.28;;;10.68;100.00
20156;BME280;10238;49.556;10.956;2023-05-02T08:10:03;98750.13;;;10.80;100.00
20156;BME280;10238;49.556;10.956;2023-05-02T08:12:51;98760.13;;;10.95;100.00
20156;BME280;10238;49.556;10.956;2023-05-02T08:15:41;98752.56;;;10.91;100.00
20156;BME280;10238;49.556;10.956;2023-05-02T08:18:28;98750.63;;;11.38;100.00
20156;BME280;10238;49.556;10.956;2023-05-02T08:21:17;98753.69;;;11.43;100.00
20156;BME280;10238;49.556;10.956;2023-05-02T08:24:05;98728.13;;;11.50;100.00
20156;BME280;10238;49.556;10.956;2023-05-02T08:26:53;98729.03;;;11.68;100.00
20156;BME280;10238;49.556;10.956;2023-05-02T08:29:41;98725.00;;;11.81;100.00
20156;BME280;10238;49.556;10.956;2023-05-02T08:32:31;98721.84;;;12.03;100.00
20156;BME280;10238;49.556;10.956;2023-05-02T08:35:19;98720.81;;;12.22;100.00
20156;BME280;10238;49.556;10.956;2023-05-02T08:38:10;98714.75;;;12.37;100.00
20156;BME280;10238;49.556;10.956;2023-05-02T08:40:58;98712.69;;;12.57;100.00
20156;BME280;10238;49.556;10.956;2023-05-02T08:43:47;98712.97;;;12.79;100.00
20156;BME280;10238;49.556;10.956;2023-05-02T08:46:35;98707.44;;;13.07;100.00
20156;BME280;10238;49.556;10.956;2023-05-02T08:49:29;98714.25;;;13.59;100.00
20156;BME280;10238;49.556;10.956;2023-05-02T08:52:19;98718.81;;;13.90;100.00
20156;BME280;10238;49.556;10.956;2023-05-02T08:55:08;98716.97;;;14.15;100.00
20156;BME280;10238;49.556;10.956;2023-05-02T08:57:57;98720.09;;;14.58;100.00
20156;BME280;10238;49.556;10.956;2023-05-02T09:00:48;98718.75;;;15.09;100.00
20156;BME280;10238;49.556;10.956;2023-05-02T09:03:37;98715.22;;;15.47;100.00
20156;BME280;10238;49.556;10.956;2023-05-02T09:06:27;98719.13;;;15.90;100.00
20156;BME280;10238;49.556;10.956;2023-05-02T09:09:16;98722.22;;;16.38;100.00
20156;BME280;10238;49.556;10.956;2023-05-02T09:12:05;98714.00;;;16.77;100.00
20156;BME280;10238;49.556;10.956;2023-05-02T09:15:08;98712.00;;;17.44;100.00
20156;BME280;10238;49.556;10.956;2023-05-02T09:17:56;98711.06;;;17.72;100.00
20156;BME280;10238;49.556;10.956;2023-05-02T09:20:44;98700.31;;;18.14;100.00
20156;BME280;10238;49.556;10.956;2023-05-02T09:23:35;98699.00;;;18.52;100.00
20156;BME280;10238;49.556;10.956;2023-05-02T09:26:24;98700.28;;;18.97;100.00
20156;BME280;10238;49.556;10.956;2023-05-02T09:29:19;98693.53;;;19.55;100.00
20156;BME280;10238;49.556;10.956;2023-05-02T09:32:07;98687.81;;;19.97;100.00
20156;BME280;10238;49.556;10.956;2023-05-02T09:35:05;98689.66;;;20.09;100.00
20156;BME280;10238;49.556;10.956;2023-05-02T09:37:54;98688.84;;;20.61;100.00
20156;BME280;10238;49.556;10.956;2023-05-02T09:40:53;98690.28;;;20.96;98.29
20156;BME280;10238;49.556;10.956;2023-05-02T09:43:41;98678.56;;;21.15;91.13
20156;BME280;10238;49.556;10.956;2023-05-02T09:46:39;98682.94;;;21.60;93.88
20156;BME280;10238;49.556;10.956;2023-05-02T09:49:39;98688.78;;;21.95;92.77
20156;BME280;10238;49.556;10.956;2023-05-02T09:52:28;98680.91;;;22.42;89.12
20156;BME280;10238;49.556;10.956;2023-05-02T09:55:20;98693.13;;;22.76;86.31
20156;BME280;10238;49.556;10.956;2023-05-02T09:58:19;98687.28;;;23.15;80.57
20156;BME280;10238;49.556;10.956;2023-05-02T10:01:12;98683.38;;;23.11;79.17
20156;BME280;10238;49.556;10.956;2023-05-02T10:04:01;98682.78;;;23.45;77.68
20156;BME280;10238;49.556;10.956;2023-05-02T10:06:51;98683.13;;;23.49;78.91
20156;BME280;10238;49.556;10.956;2023-05-02T10:09:43;98679.50;;;23.84;74.74
20156;BME280;10238;49.556;10.956;2023-05-02T10:12:32;98673.09;;;24.08;75.15
20156;BME280;10238;49.556;10.956;2023-05-02T10:15:22;98676.56;;;24.15;75.38
20156;BME280;10238;49.556;10.956;2023-05-02T10:18:14;98681.56;;;24.30;75.52
20156;BME280;10238;49.556;10.956;2023-05-02T10:21:07;98678.72;;;24.48;71.77
20156;BME280;10238;49.556;10.956;2023-05-02T10:23:56;98678.25;;;24.62;70.30
20156;BME280;10238;49.556;10.956;2023-05-02T10:26:45;98677.09;;;24.70;68.53
20156;BME280;10238;49.556;10.956;2023-05-02T10:29:34;98667.31;;;24.69;70.54
20156;BME280;10238;49.556;10.956;2023-05-02T10:32:25;98673.56;;;24.58;69.33
20156;BME280;10238;49.556;10.956;2023-05-02T10:35:15;98671.41;;;24.60;69.02
20156;BME280;10238;49.556;10.956;2023-05-02T10:38:05;98670.22;;;24.56;66.35
20156;BME280;10238;49.556;10.956;2023-05-02T10:40:57;98663.47;;;24.58;66.08
20156;BME280;10238;49.556;10.956;2023-05-02T10:43:48;98662.00;;;24.74;66.87
20156;BME280;10238;49.556;10.956;2023-05-02T10:46:37;98661.84;;;24.92;67.46
20156;BME280;10238;49.556;10.956;2023-05-02T10:49:28;98655.88;;;25.18;64.04
20156;BME280;10238;49.556;10.956;2023-05-02T10:52:34;98644.56;;;25.49;62.56
20156;BME280;10238;49.556;10.956;2023-05-02T10:55:23;98652.56;;;25.67;63.66
20156;BME280;10238;49.556;10.956;2023-05-02T10:58:21;98648.38;;;25.76;64.14
20156;BME280;10238;49.556;10.956;2023-05-02T11:01:31;98652.06;;;25.70;62.90
20156;BME280;10238;49.556;10.956;2023-05-02T11:04:22;98649.28;;;25.82;61.06
20156;BME280;10238;49.556;10.956;2023-05-02T11:07:20;98644.94;;;25.97;63.83
20156;BME280;10238;49.556;10.956;2023-05-02T11:10:25;98639.44;;;26.25;63.54
20156;BME280;10238;49.556;10.956;2023-05-02T11:13:14;98636.69;;;26.58;58.90
20156;BME280;10238;49.556;10.956;2023-05-02T11:16:02;98635.94;;;26.79;59.21
20156;BME280;10238;49.556;10.956;2023-05-02T11:18:59;98641.03;;;26.92;60.12
20156;BME280;10238;49.556;10.956;2023-05-02T11:21:47;98635.34;;;26.94;57.72
20156;BME280;10238;49.556;10.956;2023-05-02T11:24:40;98634.19;;;27.11;59.79
20156;BME280;10238;49.556;10.956;2023-05-02T11:27:36;98644.63;;;27.14;58.84
20156;BME280;10238;49.556;10.956;2023-05-02T11:30:42;98645.63;;;27.08;58.05
20156;BME280;10238;49.556;10.956;2023-05-02T11:33:30;98641.94;;;26.98;57.79
20156;BME280;10238;49.556;10.956;2023-05-02T11:36:27;98641.75;;;26.66;57.19
20156;BME280;10238;49.556;10.956;2023-05-02T11:39:19;98648.09;;;26.06;56.14
20156;BME280;10238;49.556;10.956;2023-05-02T11:42:09;98641.56;;;25.62;55.10
20156;BME280;10238;49.556;10.956;2023-05-02T11:44:59;98656.59;;;25.25;54.36
20156;BME280;10238;49.556;10.956;2023-05-02T11:47:49;98657.81;;;25.06;55.58
20156;BME280;10238;49.556;10.956;2023-05-02T11:50:42;98658.31;;;24.91;55.79
20156;BME280;10238;49.556;10.956;2023-05-02T11:53:39;98658.28;;;24.80;55.81
20156;BME280;10238;49.556;10.956;2023-05-02T11:56:28;98660.06;;;24.63;57.67
20156;BME280;10238;49.556;10.956;2023-05-02T11:59:17;98661.84;;;24.46;57.18
20156;BME280;10238;49.556;10.956;2023-05-02T12:02:06;98665.09;;;24.25;58.92
20156;BME280;10238;49.556;10.956;2023-05-02T12:04:54;98675.34;;;24.00;58.93
20156;BME280;10238;49.556;10.956;2023-05-02T12:07:43;98684.19;;;23.66;59.69
20156;BME280;10238;49.556;10.956;2023-05-02T12:10:36;98687.31;;;23.33;60.97
20156;BME280;10238;49.556;10.956;2023-05-02T12:13:25;98688.28;;;23.02;62.57
20156;BME280;10238;49.556;10.956;2023-05-02T12:16:14;98696.03;;;22.81;63.68
20156;BME280;10238;49.556;10.956;2023-05-02T12:19:03;98687.53;;;22.46;65.36
20156;BME280;10238;49.556;10.956;2023-05-02T12:21:51;98687.53;;;22.22;66.71
20156;BME280;10238;49.556;10.956;2023-05-02T12:24:39;98684.31;;;22.07;68.73
20156;BME280;10238;49.556;10.956;2023-05-02T12:27:29;98690.13;;;21.79;70.09
20156;BME280;10238;49.556;10.956;2023-05-02T12:30:25;98716.09;;;21.43;72.17
20156;BME280;10238;49.556;10.956;2023-05-02T12:33:14;98724.19;;;20.79;75.68
20156;BME280;10238;49.556;10.956;2023-05-02T12:36:07;98741.22;;;20.21;79.01
20156;BME280;10238;49.556;10.956;2023-05-02T12:38:57;98748.13;;;19.70;81.35
20156;BME280;10238;49.556;10.956;2023-05-02T12:41:45;98754.06;;;19.46;82.70
20156;BME280;10238;49.556;10.956;2023-05-02T12:44:37;98746.31;;;19.30;83.04
20156;BME280;10238;49.556;10.956;2023-05-02T12:47:27;98748.59;;;18.98;83.44
20156;BME280;10238;49.556;10.956;2023-05-02T12:50:17;98756.72;;;18.77;85.15
20156;BME280;10238;49.556;10.956;2023-05-02T12:53:05;98750.38;;;18.57;85.92
20156;BME280;10238;49.556;10.956;2023-05-02T12:56:01;98767.00;;;18.19;87.93
20156;BME280;10238;49.556;10.956;2023-05-02T12:58:50;98769.22;;;17.94;90.46
20156;BME280;10238;49.556;10.956;2023-05-02T13:01:38;98778.94;;;17.74;92.84
20156;BME280;10238;49.556;10.956;2023-05-02T13:04:33;98781.28;;;17.63;95.31
20156;BME280;10238;49.556;10.956;2023-05-02T13:07:23;98787.72;;;17.47;96.81
20156;BME280;10238;49.556;10.956;2023-05-02T13:10:11;98781.19;;;17.27;98.83
20156;BME280;10238;49.556;10.956;2023-05-02T13:13:03;98777.41;;;17.21;100.00
20156;BME280;10238;49.556;10.956;2023-05-02T13:15:51;98769.53;;;17.20;100.00
20156;BME280;10238;49.556;10.956;2023-05-02T13:18:39;98769.38;;;17.07;100.00
20156;BME280;10238;49.556;10.956;2023-05-02T13:21:27;98762.41;;;16.98;100.00
20156;BME280;10238;49.556;10.956;2023-05-02T13:24:16;98762.50;;;16.90;100.00
20156;BME280;10238;49.556;10.956;2023-05-02T13:27:05;98758.06;;;16.97;100.00
20156;BME280;10238;49.556;10.956;2023-05-02T13:29:53;98761.59;;;17.12;100.00
20156;BME280;10238;49.556;10.956;2023-05-02T13:32:41;98767.56;;;17.28;100.00
20156;BME280;10238;49.556;10.956;2023-05-02T13:35:29;98770.38;;;17.50;100.00
20156;BME280;10238;49.556;10.956;2023-05-02T13:38:20;98767.44;;;17.80;100.00
20156;BME280;10238;49.556;10.956;2023-05-02T13:41:09;98760.66;;;18.05;100.00
20156;BME280;10238;49.556;10.956;2023-05-02T13:43:57;98758.13;;;18.39;100.00
20156;BME280;10238;49.556;10.956;2023-05-02T13:46:45;98751.31;;;18.71;100.00
20156;BME280;10238;49.556;10.956;2023-05-02T13:49:33;98745.72;;;19.00;100.00
20156;BME280;10238;49.556;10.956;2023-05-02T13:52:21;98742.16;;;19.27;100.00
20156;BME280;10238;49.556;10.956;2023-05-02T13:55:09;98740.63;;;19.59;100.00
20156;BME280;10238;49.556;10.956;2023-05-02T13:57:59;98740.72;;;19.91;100.00
20156;BME280;10238;49.556;10.956;2023-05-02T14:00:48;98744.94;;;20.20;100.00
20156;BME280;10238;49.556;10.956;2023-05-02T14:03:36;98742.91;;;20.48;100.00
20156;BME280;10238;49.556;10.956;2023-05-02T14:06:24;98735.78;;;20.79;99.81
20156;BME280;10238;49.556;10.956;2023-05-02T14:09:13;98733.69;;;21.14;96.17
20156;BME280;10238;49.556;10.956;2023-05-02T14:12:01;98737.53;;;21.44;95.82
20156;BME280;10238;49.556;10.956;2023-05-02T14:14:50;98722.47;;;21.74;92.76
20156;BME280;10238;49.556;10.956;2023-05-02T14:17:38;98729.13;;;22.03;90.92
20156;BME280;10238;49.556;10.956;2023-05-02T14:20:26;98734.00;;;22.25;88.23
20156;BME280;10238;49.556;10.956;2023-05-02T14:23:14;98734.59;;;22.58;87.60
20156;BME280;10238;49.556;10.956;2023-05-02T14:26:02;98731.03;;;22.82;85.72
20156;BME280;10238;49.556;10.956;2023-05-02T14:28:50;98729.09;;;23.07;83.64
20156;BME280;10238;49.556;10.956;2023-05-02T14:31:39;98737.00;;;23.34;83.46
20156;BME280;10238;49.556;10.956;2023-05-02T14:34:27;98724.47;;;23.51;78.47
20156;BME280;10238;49.556;10.956;2023-05-02T14:37:16;98730.00;;;23.74;78.59
20156;BME280;10238;49.556;10.956;2023-05-02T14:40:04;98725.13;;;23.94;75.88
20156;BME280;10238;49.556;10.956;2023-05-02T14:42:54;98719.47;;;24.25;76.25
20156;BME280;10238;49.556;10.956;2023-05-02T14:45:42;98724.34;;;24.46;72.85